Time;durP1;ratioP1;P1;durP2;ratioP2;P2;SDS_P1;SDS_P2;PMS_P1;PMS_P2;Temp;Humidity;BMP_temperature;BMP_pressure;BME280_temperature;BME280_humidity;BME280_pressure;Samples;Min_cycle;Max_cycle;Signal;HPM_P1;HPM_P2
2021/05/16 00:00:55;;;;;;;2.53;2.10;;;15.00;99.90;;;;;;5063757;28;20271;-71
2021/05/16 00:03:23;;;;;;;1.63;1.53;;;14.90;99.90;;;;;;5066189;28;20210;-72
2021/05/16 00:05:50;;;;;;;1.60;1.50;;;14.90;99.90;;;;;;5064994;28;20236;-71
2021/05/16 00:08:17;;;;;;;2.67;2.47;;;14.90;99.90;;;;;;5069239;28;20731;-71
2021/05/16 00:10:44;;;;;;;2.10;1.90;;;14.90;99.90;;;;;;5065224;28;20312;-71
2021/05/16 00:13:11;;;;;;;1.70;1.60;;;14.90;99.90;;;;;;5069360;28;20289;-71
2021/05/16 00:15:38;;;;;;;1.83;1.73;;;14.90;99.90;;;;;;5052380;28;20232;-71
2021/05/16 00:18:06;;;;;;;2.63;2.23;;;14.90;99.90;;;;;;5069821;28;20205;-71
2021/05/16 00:20:34;;;;;;;2.97;2.30;;;14.90;99.90;;;;;;5071175;28;20279;-71
2021/05/16 00:23:00;;;;;;;1.60;1.50;;;15.00;99.90;;;;;;5070536;28;20242;-71
2021/05/16 00:25:28;;;;;;;1.80;1.70;;;15.00;99.90;;;;;;5070338;28;20239;-71
2021/05/16 00:27:55;;;;;;;1.37;1.27;;;15.00;99.90;;;;;;5070677;28;20204;-71
2021/05/16 00:30:25;;;;;;;1.70;1.60;;;15.00;99.90;;;;;;5069650;28;20704;-71
2021/05/16 00:32:53;;;;;;;2.17;1.97;;;15.00;99.90;;;;;;5071081;28;20253;-71
2021/05/16 00:35:22;;;;;;;1.80;1.70;;;14.90;99.90;;;;;;5068762;28;20787;-71
2021/05/16 00:37:49;;;;;;;1.50;1.40;;;14.90;99.90;;;;;;5064562;28;20204;-71
2021/05/16 00:40:18;;;;;;;1.73;1.63;;;14.90;99.90;;;;;;5069371;28;20715;-71
2021/05/16 00:42:46;;;;;;;2.13;1.60;;;14.90;99.90;;;;;;5071758;28;20250;-71
2021/05/16 00:45:14;;;;;;;1.77;1.67;;;14.90;99.90;;;;;;5067449;28;20302;-71
2021/05/16 00:47:47;;;;;;;1.77;1.67;;;14.90;99.90;;;;;;5069695;28;20204;-71
2021/05/16 00:50:14;;;;;;;1.60;1.50;;;14.90;99.90;;;;;;5068949;28;20481;-71
2021/05/16 00:52:42;;;;;;;1.70;1.60;;;14.90;99.90;;;;;;5068937;28;20204;-70
2021/05/16 00:55:11;;;;;;;1.70;1.60;;;14.90;99.90;;;;;;5062922;28;20220;-70
2021/05/16 00:57:40;;;;;;;2.00;1.80;;;14.90;99.90;;;;;;5070995;28;20196;-71
2021/05/16 01:00:10;;;;;;;2.07;1.97;;;14.80;99.90;;;;;;5101832;27;20208;-70
2021/05/16 01:02:38;;;;;;;2.07;1.53;;;14.80;99.90;;;;;;5069160;28;20644;-71
2021/05/16 01:05:07;;;;;;;2.50;2.17;;;14.80;99.90;;;;;;5071204;28;20220;-71
2021/05/16 01:07:35;;;;;;;2.40;1.50;;;14.70;99.90;;;;;;5071100;28;20224;-71
2021/05/16 01:10:05;;;;;;;1.50;1.40;;;14.70;99.90;;;;;;5101551;28;20874;-70
2021/05/16 01:12:40;;;;;;;1.77;1.67;;;14.70;99.90;;;;;;5069596;28;20299;-70
2021/05/16 01:15:10;;;;;;;1.87;1.70;;;14.70;99.90;;;;;;5069755;28;20200;-70
2021/05/16 01:17:37;;;;;;;2.37;2.00;;;14.80;99.90;;;;;;5070439;28;20204;-71
2021/05/16 01:20:07;;;;;;;1.50;1.40;;;14.80;99.90;;;;;;5052615;28;20510;-70
2021/05/16 01:22:39;;;;;;;2.20;2.00;;;14.80;99.90;;;;;;5069478;28;20504;-70
2021/05/16 01:25:07;;;;;;;2.50;2.30;;;14.80;99.90;;;;;;5067701;28;20564;-73
2021/05/16 01:27:34;;;;;;;1.80;1.53;;;14.80;99.90;;;;;;5069586;28;20207;-70
2021/05/16 01:30:01;;;;;;;2.40;1.90;;;14.80;99.90;;;;;;5069891;28;20216;-71
2021/05/16 01:32:28;;;;;;;1.70;1.60;;;14.70;99.90;;;;;;5068333;28;20227;-71
2021/05/16 01:34:55;;;;;;;1.60;1.50;;;14.70;99.90;;;;;;5069051;28;20208;-71
2021/05/16 01:37:23;;;;;;;1.90;1.80;;;14.70;99.90;;;;;;5069033;28;20193;-71
2021/05/16 01:39:51;;;;;;;1.73;1.63;;;14.70;99.90;;;;;;5068379;28;20683;-70
2021/05/16 01:42:18;;;;;;;1.27;1.27;;;14.70;99.90;;;;;;5086117;28;20576;-70
2021/05/16 01:44:47;;;;;;;2.60;2.13;;;14.70;99.90;;;;;;5068501;28;20244;-71
2021/05/16 01:47:13;;;;;;;2.70;2.30;;;14.70;99.90;;;;;;5045189;28;20750;-71
2021/05/16 01:49:43;;;;;;;2.00;1.90;;;14.60;99.90;;;;;;5069447;28;20295;-70
2021/05/16 01:52:10;;;;;;;2.60;2.20;;;14.60;99.90;;;;;;5070937;28;20204;-71
2021/05/16 01:54:37;;;;;;;2.00;1.80;;;14.60;99.90;;;;;;5068320;28;20311;-71
2021/05/16 01:57:07;;;;;;;2.13;2.00;;;14.50;99.90;;;;;;5068514;28;20864;-71
2021/05/16 01:59:36;;;;;;;4.00;2.20;;;14.50;99.90;;;;;;5063353;28;20621;-71
2021/05/16 02:02:04;;;;;;;2.20;2.10;;;14.40;99.90;;;;;;5066943;28;20291;-71
2021/05/16 02:04:33;;;;;;;1.87;1.77;;;14.40;99.90;;;;;;5068253;28;20244;-71
2021/05/16 02:07:01;;;;;;;1.83;1.73;;;14.40;99.90;;;;;;5072521;28;20245;-71
2021/05/16 02:09:31;;;;;;;1.87;1.77;;;14.40;99.90;;;;;;5059823;28;20212;-71
2021/05/16 02:11:59;;;;;;;1.40;1.30;;;14.40;99.90;;;;;;5068259;28;20575;-71
2021/05/16 02:14:29;;;;;;;1.57;1.47;;;14.50;99.90;;;;;;5067882;28;20266;-71
2021/05/16 02:16:58;;;;;;;2.30;2.10;;;14.50;99.90;;;;;;5067786;28;20227;-71
2021/05/16 02:19:25;;;;;;;1.73;1.60;;;14.50;99.90;;;;;;5067750;28;20714;-71
2021/05/16 02:21:53;;;;;;;1.63;1.47;;;14.50;99.90;;;;;;5068475;28;20325;-71
2021/05/16 02:24:22;;;;;;;1.63;1.53;;;14.50;99.90;;;;;;5067269;28;20223;-71
2021/05/16 02:27:05;;;;;;;1.50;1.40;;;14.60;99.90;;;;;;5067947;28;20208;-71
2021/05/16 02:29:47;;;;;;;1.70;1.60;;;14.60;99.90;;;;;;5067112;28;20758;-71
2021/05/16 02:32:14;;;;;;;1.77;1.67;;;14.60;99.90;;;;;;5066420;28;20273;-71
2021/05/16 02:34:44;;;;;;;1.37;1.30;;;14.60;99.90;;;;;;5049686;28;20205;-71
2021/05/16 02:37:16;;;;;;;2.03;1.60;;;14.60;99.90;;;;;;5067223;28;20201;-72
2021/05/16 02:39:44;;;;;;;1.60;1.50;;;14.60;99.90;;;;;;5066802;28;20565;-71
2021/05/16 02:42:12;;;;;;;1.73;1.63;;;14.60;99.90;;;;;;5067267;28;20196;-71
2021/05/16 02:44:39;;;;;;;1.70;1.60;;;14.70;99.90;;;;;;5066971;28;20232;-71
2021/05/16 02:47:07;;;;;;;1.80;1.70;;;14.70;99.90;;;;;;5066661;28;20208;-71
2021/05/16 02:49:34;;;;;;;1.60;1.50;;;14.60;99.90;;;;;;5067178;28;20242;-71
2021/05/16 02:52:00;;;;;;;1.50;1.40;;;14.60;99.90;;;;;;5067078;28;20207;-72
2021/05/16 02:54:27;;;;;;;1.60;1.50;;;14.70;99.90;;;;;;5066599;28;20540;-71
2021/05/16 02:56:54;;;;;;;1.50;1.40;;;14.70;99.90;;;;;;5067073;28;20209;-71
2021/05/16 02:59:25;;;;;;;1.60;1.50;;;14.70;99.90;;;;;;5084292;28;20200;-71
2021/05/16 03:01:53;;;;;;;2.00;1.90;;;14.70;99.90;;;;;;5066829;28;20200;-71
2021/05/16 03:04:23;;;;;;;1.50;1.43;;;14.70;99.90;;;;;;5062472;28;20183;-71
2021/05/16 03:06:49;;;;;;;1.77;1.67;;;14.70;99.90;;;;;;5061661;28;20291;-71
2021/05/16 03:09:16;;;;;;;1.60;1.50;;;14.70;99.90;;;;;;5068552;28;20215;-71
2021/05/16 03:11:43;;;;;;;1.77;1.67;;;14.60;99.90;;;;;;5065736;28;20591;-71
2021/05/16 03:14:11;;;;;;;2.13;1.93;;;14.70;99.90;;;;;;5050530;28;20260;-71
2021/05/16 03:16:38;;;;;;;1.60;1.50;;;14.60;99.90;;;;;;5066052;28;20297;-71
2021/05/16 03:19:05;;;;;;;1.73;1.60;;;14.60;99.90;;;;;;5055179;28;20208;-71
2021/05/16 03:21:42;;;;;;;1.70;1.60;;;14.60;99.90;;;;;;5066932;28;20199;-71
2021/05/16 03:24:09;;;;;;;1.50;1.40;;;14.60;99.90;;;;;;5066589;28;20215;-71
2021/05/16 03:26:37;;;;;;;1.60;1.50;;;14.60;99.90;;;;;;5066941;28;20289;-71
2021/05/16 03:29:06;;;;;;;1.70;1.60;;;14.70;99.90;;;;;;5067087;28;20211;-71
2021/05/16 03:31:32;;;;;;;1.97;1.87;;;14.70;99.90;;;;;;5065343;28;20246;-72
2021/05/16 03:33:59;;;;;;;1.70;1.60;;;14.70;99.90;;;;;;5068234;28;20200;-72
2021/05/16 03:36:26;;;;;;;1.90;1.80;;;14.70;99.90;;;;;;5067298;28;20659;-71
2021/05/16 03:38:53;;;;;;;1.93;1.83;;;14.70;99.90;;;;;;5066445;28;20223;-71
2021/05/16 03:41:20;;;;;;;1.77;1.67;;;14.70;99.90;;;;;;5068191;28;20579;-72
2021/05/16 03:43:48;;;;;;;1.53;1.43;;;14.70;99.90;;;;;;5066803;28;20204;-71
2021/05/16 03:46:15;;;;;;;1.77;1.67;;;14.70;99.90;;;;;;5065955;28;20236;-71
2021/05/16 03:48:42;;;;;;;1.30;1.30;;;14.70;99.90;;;;;;5050483;28;20211;-71
2021/05/16 03:51:10;;;;;;;1.70;1.60;;;14.70;99.90;;;;;;5066625;28;20250;-71
2021/05/16 03:53:38;;;;;;;1.57;1.47;;;14.80;99.90;;;;;;5066884;28;20728;-71
2021/05/16 03:56:06;;;;;;;1.60;1.50;;;14.80;99.90;;;;;;5049904;28;20204;-71
2021/05/16 03:58:33;;;;;;;1.53;1.43;;;14.80;99.90;;;;;;5068041;28;20273;-71
2021/05/16 04:00:59;;;;;;;1.40;1.30;;;14.80;99.90;;;;;;5048314;28;20219;-71
2021/05/16 04:03:26;;;;;;;1.67;1.57;;;14.80;99.90;;;;;;5068096;28;20243;-71
2021/05/16 04:05:53;;;;;;;1.60;1.50;;;14.90;99.90;;;;;;5067691;28;20215;-71
2021/05/16 04:08:20;;;;;;;1.90;1.80;;;14.80;99.90;;;;;;5073014;28;20283;-71
2021/05/16 04:10:47;;;;;;;1.80;1.70;;;14.80;99.90;;;;;;5068756;28;20281;-70
2021/05/16 04:13:14;;;;;;;1.53;1.43;;;14.80;99.90;;;;;;5067971;28;20245;-71
2021/05/16 04:15:41;;;;;;;1.67;1.53;;;14.90;99.90;;;;;;5064280;28;20204;-71
2021/05/16 04:18:08;;;;;;;1.80;1.70;;;14.90;99.90;;;;;;5067859;28;20196;-71
2021/05/16 04:20:35;;;;;;;1.60;1.50;;;14.90;99.90;;;;;;5064788;28;20195;-71
2021/05/16 04:23:02;;;;;;;1.73;1.63;;;14.80;99.90;;;;;;5069060;28;20257;-71
2021/05/16 04:25:29;;;;;;;1.63;1.53;;;14.80;99.90;;;;;;5064797;28;20238;-71
2021/05/16 04:27:56;;;;;;;2.00;1.90;;;14.80;99.90;;;;;;5067174;28;20203;-72
2021/05/16 04:30:24;;;;;;;1.90;1.80;;;14.80;99.90;;;;;;5064211;28;20488;-72
2021/05/16 04:32:51;;;;;;;2.00;1.90;;;14.80;99.90;;;;;;5066955;28;20199;-71
2021/05/16 04:35:18;;;;;;;1.73;1.63;;;14.80;99.90;;;;;;5063965;28;20250;-72
2021/05/16 04:37:44;;;;;;;1.33;1.30;;;14.80;99.90;;;;;;5066462;28;20306;-72
2021/05/16 04:40:12;;;;;;;1.70;1.50;;;14.80;99.90;;;;;;5047837;28;20594;-72
2021/05/16 04:42:39;;;;;;;1.50;1.40;;;14.80;99.90;;;;;;5066513;28;20205;-71
2021/05/16 04:45:06;;;;;;;1.87;1.77;;;14.80;99.90;;;;;;5064617;28;20340;-72
2021/05/16 04:47:34;;;;;;;1.90;1.80;;;14.80;99.90;;;;;;5067785;28;20204;-72
2021/05/16 04:50:01;;;;;;;1.80;1.70;;;14.80;99.90;;;;;;5065470;28;20774;-72
2021/05/16 04:52:27;;;;;;;1.90;1.80;;;14.80;99.90;;;;;;5066854;28;20216;-71
2021/05/16 04:54:54;;;;;;;1.90;1.67;;;14.80;99.90;;;;;;5066361;28;20482;-71
2021/05/16 04:57:20;;;;;;;2.30;2.10;;;14.80;99.90;;;;;;5068520;28;20258;-71
2021/05/16 04:59:50;;;;;;;1.77;1.67;;;14.80;99.90;;;;;;5067631;28;20203;-72
2021/05/16 05:02:16;;;;;;;1.80;1.70;;;14.90;99.90;;;;;;5070307;28;20203;-71
2021/05/16 05:04:44;;;;;;;2.47;2.07;;;14.90;99.90;;;;;;5069656;28;20600;-72
2021/05/16 05:07:11;;;;;;;1.93;1.70;;;14.90;99.90;;;;;;5073318;28;20222;-72
2021/05/16 05:09:39;;;;;;;1.97;1.60;;;14.90;99.90;;;;;;5069440;28;20231;-72
2021/05/16 05:12:07;;;;;;;2.23;2.10;;;14.90;99.90;;;;;;5071453;28;20196;-71
2021/05/16 05:14:33;;;;;;;2.87;1.70;;;15.00;99.90;;;;;;5070243;28;20193;-71
2021/05/16 05:17:00;;;;;;;1.83;1.73;;;15.00;99.90;;;;;;5052121;28;20207;-72
2021/05/16 05:19:27;;;;;;;1.97;1.87;;;15.00;99.90;;;;;;5069185;28;20191;-71
2021/05/16 05:21:54;;;;;;;2.30;2.10;;;15.00;99.90;;;;;;5069433;28;20204;-71
2021/05/16 05:24:22;;;;;;;1.77;1.67;;;15.00;99.90;;;;;;5070119;28;20193;-71
2021/05/16 05:26:49;;;;;;;1.70;1.60;;;15.00;99.90;;;;;;5070834;28;20206;-72
2021/05/16 05:29:15;;;;;;;2.60;1.70;;;15.00;99.90;;;;;;5069803;28;20203;-71
2021/05/16 05:31:43;;;;;;;2.00;1.67;;;15.00;99.90;;;;;;5068997;28;20187;-71
2021/05/16 05:34:10;;;;;;;1.73;1.63;;;15.00;99.90;;;;;;5070453;28;20200;-71
2021/05/16 05:36:37;;;;;;;2.40;2.20;;;14.90;99.90;;;;;;5068522;28;20200;-71
2021/05/16 05:39:05;;;;;;;3.27;2.37;;;15.00;99.90;;;;;;5068181;28;20278;-71
2021/05/16 05:41:32;;;;;;;2.17;2.03;;;14.90;99.90;;;;;;5068324;28;20208;-72
2021/05/16 05:43:59;;;;;;;2.80;2.60;;;14.90;99.90;;;;;;5069902;28;20208;-71
2021/05/16 05:46:25;;;;;;;2.30;2.10;;;14.90;99.90;;;;;;5068612;28;20718;-70
2021/05/16 05:48:52;;;;;;;2.10;2.00;;;14.90;99.90;;;;;;5069080;28;20301;-71
2021/05/16 05:51:19;;;;;;;2.50;2.30;;;14.80;99.90;;;;;;5068059;28;20687;-71
2021/05/16 05:53:45;;;;;;;1.70;1.60;;;14.80;99.90;;;;;;5062357;28;20212;-71
2021/05/16 05:56:13;;;;;;;2.27;2.10;;;14.80;99.90;;;;;;5062107;28;20339;-71
2021/05/16 05:58:40;;;;;;;1.90;1.80;;;14.90;99.90;;;;;;5070088;28;20234;-71
2021/05/16 06:01:07;;;;;;;2.20;2.00;;;14.90;99.90;;;;;;5066903;28;20305;-70
2021/05/16 06:03:34;;;;;;;2.00;1.90;;;14.90;99.90;;;;;;5069972;28;20262;-71
2021/05/16 06:06:00;;;;;;;2.40;2.20;;;14.90;99.90;;;;;;5071635;28;20236;-71
2021/05/16 06:08:27;;;;;;;2.43;2.23;;;15.00;99.90;;;;;;5073261;28;20671;-71
2021/05/16 06:10:53;;;;;;;2.40;2.20;;;15.00;99.90;;;;;;5066937;28;20220;-71
2021/05/16 06:13:21;;;;;;;2.33;2.13;;;15.00;99.90;;;;;;5068121;28;20318;-71
2021/05/16 06:15:48;;;;;;;2.10;2.00;;;15.10;99.90;;;;;;5100226;28;20236;-71
2021/05/16 06:18:15;;;;;;;1.90;1.80;;;15.10;99.90;;;;;;5069827;28;20195;-71
2021/05/16 06:20:42;;;;;;;1.93;1.83;;;15.20;99.90;;;;;;5069048;28;20188;-71
2021/05/16 06:23:11;;;;;;;2.63;1.60;;;15.30;99.90;;;;;;5068605;28;20287;-71
2021/05/16 06:25:38;;;;;;;1.90;1.80;;;15.40;99.90;;;;;;5063766;28;20345;-69
2021/05/16 06:28:04;;;;;;;2.00;1.80;;;15.40;99.90;;;;;;5091057;28;20214;-71
2021/05/16 06:30:33;;;;;;;2.83;2.03;;;15.50;99.90;;;;;;5067936;28;20339;-71
2021/05/16 06:33:00;;;;;;;1.97;1.87;;;15.50;99.90;;;;;;5081132;28;20236;-71
2021/05/16 06:35:26;;;;;;;1.83;1.73;;;15.60;99.90;;;;;;5096561;28;20201;-69
2021/05/16 06:37:53;;;;;;;2.00;1.90;;;15.60;99.90;;;;;;5069345;28;20197;-71
2021/05/16 06:40:20;;;;;;;1.70;1.60;;;15.70;99.90;;;;;;5049873;28;20263;-71
2021/05/16 06:42:47;;;;;;;1.97;1.87;;;15.80;99.90;;;;;;5068096;28;20192;-71
2021/05/16 06:45:14;;;;;;;2.00;1.90;;;15.80;99.90;;;;;;5067188;28;20251;-71
2021/05/16 06:47:42;;;;;;;2.20;2.00;;;15.90;99.90;;;;;;5046158;28;20324;-70
2021/05/16 06:50:09;;;;;;;2.27;2.17;;;15.90;99.90;;;;;;5063617;28;20585;-71
2021/05/16 06:52:36;;;;;;;1.80;1.70;;;16.00;99.90;;;;;;5067614;28;20201;-71
2021/05/16 06:55:04;;;;;;;2.10;2.00;;;16.00;99.90;;;;;;5066171;28;20289;-71
2021/05/16 06:57:31;;;;;;;1.90;1.80;;;16.10;99.90;;;;;;5069154;28;20552;-71
2021/05/16 06:59:58;;;;;;;2.30;2.10;;;16.30;99.90;;;;;;5066571;28;20200;-71
2021/05/16 07:02:24;;;;;;;2.27;2.00;;;16.40;99.90;;;;;;5068153;28;20223;-71
2021/05/16 07:04:52;;;;;;;2.27;2.17;;;16.50;99.90;;;;;;5066936;28;20251;-72
2021/05/16 07:07:18;;;;;;;2.40;2.20;;;16.60;99.90;;;;;;5071339;28;20201;-71
2021/05/16 07:09:45;;;;;;;2.30;2.20;;;16.70;99.90;;;;;;5065254;28;20544;-71
2021/05/16 07:12:12;;;;;;;2.67;2.47;;;16.70;99.90;;;;;;5067830;28;20199;-71
2021/05/16 07:14:38;;;;;;;2.40;2.20;;;16.70;99.90;;;;;;5067601;28;20199;-71
2021/05/16 07:17:05;;;;;;;2.67;2.47;;;16.70;99.90;;;;;;5066155;28;20205;-71
2021/05/16 07:19:31;;;;;;;2.60;2.40;;;16.70;99.90;;;;;;5068411;28;20271;-71
2021/05/16 07:21:59;;;;;;;2.30;2.20;;;16.60;99.90;;;;;;5067047;28;20214;-71
2021/05/16 07:24:25;;;;;;;2.83;2.40;;;16.60;99.90;;;;;;5066231;28;20223;-69
2021/05/16 07:26:52;;;;;;;2.33;2.23;;;16.60;99.90;;;;;;5067621;28;20198;-71
2021/05/16 07:29:19;;;;;;;2.43;2.33;;;16.60;99.90;;;;;;5066704;28;20223;-71
2021/05/16 07:31:45;;;;;;;2.20;2.10;;;16.60;99.90;;;;;;5066035;28;20237;-71
2021/05/16 07:34:12;;;;;;;2.87;2.67;;;16.60;99.90;;;;;;5068400;28;20201;-71
2021/05/16 07:36:38;;;;;;;2.00;1.90;;;16.60;99.90;;;;;;5066465;28;20652;-71
2021/05/16 07:39:06;;;;;;;2.10;2.00;;;16.60;99.90;;;;;;5068025;28;20669;-71
2021/05/16 07:41:32;;;;;;;1.70;1.60;;;16.60;99.90;;;;;;5067937;28;20251;-71
2021/05/16 07:43:59;;;;;;;2.00;1.90;;;16.60;99.90;;;;;;5058133;28;20209;-71
2021/05/16 07:46:26;;;;;;;2.10;2.00;;;16.60;99.90;;;;;;5065551;28;20584;-71
2021/05/16 07:48:52;;;;;;;2.47;2.37;;;16.50;99.90;;;;;;5068580;28;20200;-71
2021/05/16 07:51:19;;;;;;;2.43;2.23;;;16.50;99.90;;;;;;5068200;28;20221;-71
2021/05/16 07:53:46;;;;;;;2.37;2.20;;;16.40;99.90;;;;;;5062296;28;20680;-71
2021/05/16 07:56:13;;;;;;;2.90;2.60;;;16.40;99.90;;;;;;5059692;28;20232;-71
2021/05/16 07:58:39;;;;;;;2.93;2.70;;;16.40;99.90;;;;;;5068308;28;20252;-71
2021/05/16 08:01:06;;;;;;;2.50;2.40;;;16.50;99.90;;;;;;5065125;28;20584;-71
2021/05/16 08:03:33;;;;;;;2.80;2.60;;;16.30;99.90;;;;;;5067358;28;20212;-71
2021/05/16 08:05:59;;;;;;;2.70;2.50;;;16.30;99.90;;;;;;5067557;28;20209;-71
2021/05/16 08:08:26;;;;;;;3.80;2.87;;;16.30;99.90;;;;;;5065924;28;20228;-71
2021/05/16 08:10:53;;;;;;;2.80;2.60;;;16.30;99.90;;;;;;5047896;28;20227;-71
2021/05/16 08:13:20;;;;;;;3.03;2.40;;;16.30;99.90;;;;;;5068281;28;20201;-71
2021/05/16 08:15:47;;;;;;;2.73;2.50;;;16.30;99.90;;;;;;5048486;28;20734;-71
2021/05/16 08:18:14;;;;;;;8.43;3.87;;;16.20;99.90;;;;;;5066212;28;20280;-71
2021/05/16 08:20:41;;;;;;;3.00;2.70;;;16.20;99.90;;;;;;5048735;28;20198;-71
2021/05/16 08:23:07;;;;;;;2.73;2.30;;;16.10;99.90;;;;;;5068415;28;20272;-71
2021/05/16 08:25:36;;;;;;;2.00;1.90;;;16.10;99.90;;;;;;5065379;28;20197;-71
2021/05/16 08:28:02;;;;;;;2.50;2.30;;;16.10;99.90;;;;;;5050798;28;20194;-71
2021/05/16 08:30:30;;;;;;;2.60;2.20;;;16.10;99.90;;;;;;5049174;28;20325;-71
2021/05/16 08:32:57;;;;;;;2.30;2.10;;;16.10;99.90;;;;;;5063178;28;20206;-71
2021/05/16 08:35:24;;;;;;;1.70;1.60;;;16.20;99.90;;;;;;5066470;28;20213;-71
2021/05/16 08:37:50;;;;;;;1.50;1.40;;;16.40;99.90;;;;;;5071926;28;20680;-71
2021/05/16 08:40:17;;;;;;;1.90;1.70;;;16.70;99.90;;;;;;5068749;28;20515;-71
2021/05/16 08:42:45;;;;;;;1.90;1.80;;;17.00;99.90;;;;;;5071833;28;20992;-71
2021/05/16 08:45:13;;;;;;;2.50;2.30;;;17.20;99.90;;;;;;5046061;22;20777;-75
2021/05/16 08:47:42;;;;;;;2.50;2.23;;;17.40;99.90;;;;;;5037939;28;20208;-74
2021/05/16 08:50:11;;;;;;;2.00;1.90;;;17.60;99.90;;;;;;5029912;28;20238;-75
2021/05/16 08:52:38;;;;;;;2.37;2.17;;;17.70;99.90;;;;;;5029833;28;20201;-75
2021/05/16 08:55:05;;;;;;;2.37;2.23;;;17.80;99.90;;;;;;5029022;28;20286;-75
2021/05/16 08:57:32;;;;;;;2.67;2.47;;;17.80;99.90;;;;;;5030225;28;20597;-75
2021/05/16 09:00:11;;;;;;;2.47;2.27;;;17.80;99.90;;;;;;5012047;28;20209;-75
2021/05/16 09:03:01;;;;;;;2.13;2.03;;;17.80;99.90;;;;;;5024901;28;20266;-76
2021/05/16 09:05:30;;;;;;;2.17;2.00;;;17.70;99.90;;;;;;5040110;28;20219;-75
2021/05/16 09:08:00;;;;;;;2.00;1.90;;;17.70;99.90;;;;;;5028422;28;20190;-76
2021/05/16 09:10:27;;;;;;;2.10;2.00;;;17.60;99.90;;;;;;5028072;28;20268;-76
2021/05/16 09:13:07;;;;;;;2.40;2.20;;;17.50;99.90;;;;;;5027856;28;20645;-76
2021/05/16 09:15:33;;;;;;;2.40;2.20;;;17.40;99.90;;;;;;5026606;28;20196;-75
2021/05/16 09:18:01;;;;;;;2.10;2.00;;;17.40;99.90;;;;;;5022976;28;20188;-76
2021/05/16 09:20:28;;;;;;;2.40;2.30;;;17.30;99.90;;;;;;5018939;28;20187;-76
2021/05/16 09:22:54;;;;;;;2.10;2.00;;;17.30;99.90;;;;;;5033222;28;20704;-74
2021/05/16 09:25:24;;;;;;;1.80;1.70;;;17.50;99.90;;;;;;5025298;28;20279;-74
2021/05/16 09:27:52;;;;;;;1.97;1.87;;;17.80;99.90;;;;;;5024959;28;20215;-75
2021/05/16 09:30:30;;;;;;;2.10;1.80;;;18.40;99.90;;;;;;5021939;28;20509;-76
2021/05/16 09:32:59;;;;;;;1.80;1.70;;;19.30;99.90;;;;;;5024237;28;20197;-75
2021/05/16 09:35:38;;;;;;;2.00;1.88;;;19.80;99.90;;;;;;5013624;28;20217;-74
2021/05/16 09:38:08;;;;;;;2.08;1.98;;;20.00;99.90;;;;;;5023321;28;20246;-75
2021/05/16 09:40:39;;;;;;;2.13;2.03;;;19.90;99.90;;;;;;5021966;28;20203;-74
2021/05/16 09:43:20;;;;;;;1.88;1.73;;;19.80;99.90;;;;;;5029442;28;20198;-75
2021/05/16 09:45:55;;;;;;;2.17;2.08;;;19.70;99.90;;;;;;5026191;28;20482;-75
2021/05/16 09:48:36;;;;;;;3.53;2.70;;;19.90;99.90;;;;;;5027672;28;20202;-75
2021/05/16 09:51:14;;;;;;;3.50;3.25;;;19.60;99.90;;;;;;5026435;28;20219;-75
2021/05/16 09:53:52;;;;;;;2.83;2.63;;;19.50;99.90;;;;;;5025964;28;20195;-76
2021/05/16 09:56:21;;;;;;;3.20;2.70;;;19.40;99.90;;;;;;5004760;28;20285;-74
2021/05/16 09:58:48;;;;;;;2.00;1.90;;;19.40;99.90;;;;;;5021655;28;20674;-75
2021/05/16 10:01:15;;;;;;;2.85;2.63;;;19.30;99.90;;;;;;5025397;28;20363;-76
2021/05/16 10:03:42;;;;;;;2.20;2.10;;;19.20;99.90;;;;;;5028872;28;20202;-75
2021/05/16 10:06:10;;;;;;;2.20;2.00;;;19.20;99.90;;;;;;5029057;28;20194;-75
2021/05/16 10:08:37;;;;;;;1.90;1.80;;;19.20;99.90;;;;;;5020719;28;20219;-75
2021/05/16 10:11:04;;;;;;;1.80;1.70;;;19.10;99.90;;;;;;5027457;28;20214;-75
2021/05/16 10:13:35;;;;;;;1.80;1.70;;;19.10;99.90;;;;;;5016541;28;20551;-76
2021/05/16 10:16:03;;;;;;;2.30;2.15;;;19.20;99.90;;;;;;5027842;28;20281;-75
2021/05/16 10:18:32;;;;;;;2.15;2.05;;;19.20;99.90;;;;;;5023116;28;20202;-75
2021/05/16 10:20:59;;;;;;;2.00;1.90;;;19.40;99.90;;;;;;5025364;28;20202;-75
2021/05/16 10:23:33;;;;;;;1.90;1.80;;;19.50;99.90;;;;;;5029619;28;20190;-75
2021/05/16 10:26:18;;;;;;;1.30;1.30;;;19.60;99.90;;;;;;5025915;28;20198;-75
2021/05/16 10:28:59;;;;;;;2.75;2.40;;;19.70;99.90;;;;;;5027537;28;20217;-74
2021/05/16 10:31:43;;;;;;;2.25;2.03;;;19.70;99.90;;;;;;5027180;28;20311;-76
2021/05/16 10:34:41;;;;;;;2.55;2.20;;;19.70;99.90;;;;;;5025921;28;20226;-75
2021/05/16 10:37:10;;;;;;;1.48;1.38;;;19.70;99.90;;;;;;4967668;28;20539;-75
2021/05/16 10:39:54;;;;;;;2.97;2.15;;;19.60;99.90;;;;;;4965959;28;20719;-75
2021/05/16 10:42:23;;;;;;;2.13;2.03;;;19.90;99.90;;;;;;4967706;28;20328;-75
2021/05/16 10:45:04;;;;;;;1.92;1.83;;;20.10;99.90;;;;;;4948086;28;20750;-74
2021/05/16 10:47:53;;;;;;;1.83;1.73;;;20.40;99.90;;;;;;4968598;28;20212;-75
2021/05/16 10:50:57;;;;;;;1.77;1.67;;;21.50;99.90;;;;;;4970294;28;20739;-75
2021/05/16 10:53:41;;;;;;;2.13;2.00;;;24.00;99.90;;;;;;4927268;29;20249;-74
2021/05/16 10:56:26;;;;;;;2.13;2.03;;;25.60;99.90;;;;;;4923899;29;20214;-76
2021/05/16 10:58:56;;;;;;;1.90;1.80;;;27.50;99.80;;;;;;4931404;29;20237;-75
2021/05/16 11:01:39;;;;;;;2.40;2.20;;;29.10;94.80;;;;;;4912606;29;20312;-76
2021/05/16 11:04:06;;;;;;;2.47;2.28;;;30.10;87.60;;;;;;4913042;29;20252;-76
2021/05/16 11:06:56;;;;;;;3.20;2.15;;;30.90;81.10;;;;;;4914705;29;20325;-75
2021/05/16 11:09:34;;;;;;;1.95;1.85;;;31.50;75.70;;;;;;4928100;29;20629;-76
2021/05/16 11:12:02;;;;;;;2.75;2.00;;;32.10;72.10;;;;;;4929400;29;20289;-76
2021/05/16 11:14:35;;;;;;;2.22;2.10;;;32.60;70.00;;;;;;4964426;28;20442;-75
2021/05/16 11:17:03;;;;;;;3.30;3.10;;;32.60;67.30;;;;;;4985943;28;20208;-76
2021/05/16 11:19:31;;;;;;;3.40;2.78;;;31.80;63.40;;;;;;4986669;28;20286;-75
2021/05/16 11:22:08;;;;;;;2.10;2.00;;;30.60;62.70;;;;;;4970665;28;20311;-76
2021/05/16 11:24:47;;;;;;;2.15;2.05;;;29.50;64.40;;;;;;4985631;28;20765;-75
2021/05/16 11:27:20;;;;;;;2.10;2.00;;;28.90;67.00;;;;;;4971087;28;20216;-75
2021/05/16 11:29:51;;;;;;;2.03;1.92;;;28.70;68.40;;;;;;5017768;28;20214;-75
2021/05/16 11:32:28;;;;;;;1.77;1.67;;;28.50;69.00;;;;;;5023438;28;20243;-75
2021/05/16 11:35:11;;;;;;;2.50;2.40;;;28.40;69.70;;;;;;5022809;28;20210;-75
2021/05/16 11:37:38;;;;;;;2.47;2.28;;;27.80;69.20;;;;;;5027499;28;20324;-75
2021/05/16 11:40:28;;;;;;;3.25;2.78;;;27.20;70.10;;;;;;5027646;28;20272;-75
2021/05/16 11:43:04;;;;;;;2.40;2.30;;;26.70;71.40;;;;;;5024844;28;20203;-75
2021/05/16 11:45:34;;;;;;;2.88;2.67;;;26.00;72.20;;;;;;5027031;28;20234;-76
2021/05/16 11:48:01;;;;;;;2.42;2.33;;;25.50;73.60;;;;;;5026550;28;20528;-76
2021/05/16 11:50:43;;;;;;;3.28;3.00;;;25.00;73.50;;;;;;5043190;28;20205;-76
2021/05/16 11:53:09;;;;;;;2.88;2.67;;;24.50;73.30;;;;;;5028160;28;20194;-75
2021/05/16 11:55:36;;;;;;;2.63;2.53;;;24.00;74.70;;;;;;5026479;28;20281;-74
2021/05/16 11:58:06;;;;;;;2.42;2.20;;;23.50;76.20;;;;;;5028213;28;20570;-75
2021/05/16 12:00:33;;;;;;;2.80;2.60;;;23.20;78.30;;;;;;5027091;28;20218;-75
2021/05/16 12:03:10;;;;;;;2.67;2.53;;;22.90;79.80;;;;;;5023115;28;20223;-76
2021/05/16 12:05:37;;;;;;;2.67;2.47;;;22.50;81.30;;;;;;5008241;28;20195;-75
2021/05/16 12:08:14;;;;;;;2.90;2.70;;;22.20;82.40;;;;;;5019733;28;20210;-74
2021/05/16 12:10:41;;;;;;;2.75;2.65;;;22.00;83.20;;;;;;5024340;28;20194;-75
2021/05/16 12:13:20;;;;;;;2.65;2.45;;;21.70;84.50;;;;;;5037279;28;20314;-74
2021/05/16 12:15:47;;;;;;;2.90;2.75;;;21.30;86.30;;;;;;5025900;28;20576;-76
2021/05/16 12:18:24;;;;;;;2.50;2.40;;;21.10;88.30;;;;;;5031649;28;20202;-73
2021/05/16 12:21:01;;;;;;;3.13;2.90;;;20.80;90.00;;;;;;5032425;28;20754;-76
2021/05/16 12:23:28;;;;;;;3.35;3.05;;;20.60;91.10;;;;;;5044205;28;20228;-64
2021/05/16 12:25:55;;;;;;;2.50;2.40;;;20.30;92.20;;;;;;5025956;28;20469;-64
2021/05/16 12:28:23;;;;;;;2.38;2.17;;;20.20;93.70;;;;;;5026611;28;20570;-64
2021/05/16 12:30:51;;;;;;;2.20;2.10;;;20.20;94.60;;;;;;5025462;28;20313;-64
2021/05/16 12:33:18;;;;;;;3.00;2.80;;;20.10;95.60;;;;;;5024837;28;20585;-64
2021/05/16 12:35:46;;;;;;;3.30;3.00;;;20.00;96.80;;;;;;5028876;28;20256;-65
2021/05/16 12:38:13;;;;;;;2.60;2.40;;;19.90;97.80;;;;;;5027461;28;20580;-64
2021/05/16 12:40:39;;;;;;;2.63;2.20;;;19.80;98.60;;;;;;5025141;28;20218;-65
2021/05/16 12:43:08;;;;;;;1.80;1.70;;;19.70;99.30;;;;;;5025508;28;20216;-65
2021/05/16 12:45:37;;;;;;;1.98;1.88;;;19.80;99.90;;;;;;5037779;28;20233;-64
2021/05/16 12:48:05;;;;;;;1.88;1.77;;;19.70;99.90;;;;;;5025710;28;20535;-75
2021/05/16 12:50:35;;;;;;;3.00;2.70;;;19.70;99.90;;;;;;5033260;28;20194;-75
2021/05/16 12:53:25;;;;;;;2.60;2.40;;;19.70;99.90;;;;;;5038398;28;20245;-75
2021/05/16 12:55:53;;;;;;;2.97;2.78;;;19.70;99.90;;;;;;5020562;28;20544;-75
2021/05/16 12:58:24;;;;;;;2.72;2.53;;;19.70;99.90;;;;;;5003157;28;20585;-77